createdAt,value
2022-12-11T08:29:04.659Z,85.83
2022-12-11T08:34:06.718Z,85.38
2022-12-11T08:39:08.738Z,85.44
2022-12-11T08:44:16.632Z,85.29
2022-12-11T08:49:19.193Z,84.22
2022-12-11T08:54:21.186Z,84.66
2022-12-11T08:59:23.643Z,84.05
2022-12-11T09:04:25.669Z,83.65
2022-12-11T09:09:27.714Z,83.75
2022-12-11T09:14:29.735Z,83.61
2022-12-11T09:19:32.490Z,83.08
2022-12-11T09:24:34.707Z,83.09
2022-12-11T09:29:36.815Z,82.89
2022-12-11T09:34:38.813Z,82.65
2022-12-11T09:39:40.854Z,82.42
2022-12-11T09:44:43.334Z,81.83
2022-12-11T09:49:49.211Z,81.89
2022-12-11T09:54:57.269Z,81.78
2022-12-11T10:00:11.871Z,81.84
2022-12-11T10:05:28.956Z,81.53
2022-12-11T10:10:43.678Z,80.68
2022-12-11T10:16:01.179Z,81.08
2022-12-11T10:21:04.102Z,80.24
2022-12-11T10:26:17.866Z,80.37
2022-12-11T10:31:29.957Z,80.34
2022-12-11T10:36:37.206Z,80.29
2022-12-11T10:41:42.174Z,80.10
2022-12-11T10:46:45.573Z,80.23
2022-12-11T10:51:47.709Z,80.47
2022-12-11T10:56:49.842Z,80.67
2022-12-11T11:01:52.064Z,80.35
2022-12-11T11:07:14.383Z,80.22
2022-12-11T11:12:24.342Z,80.10
2022-12-11T11:17:29.571Z,80.39
2022-12-11T11:22:42.016Z,80.17
2022-12-11T11:27:49.094Z,79.56
2022-12-11T11:33:02.920Z,79.48
2022-12-11T11:38:18.910Z,79.23
2022-12-11T11:43:56.355Z,78.85
2022-12-11T11:49:04.103Z,79.28
2022-12-11T11:54:21.148Z,78.63
2022-12-11T11:59:31.124Z,79.24
2022-12-11T12:04:35.280Z,78.35
2022-12-11T12:09:43.606Z,78.49
2022-12-11T12:15:06.384Z,78.28
2022-12-11T12:20:08.515Z,78.36
2022-12-11T12:25:36.787Z,78.02
2022-12-11T12:30:53.421Z,78.54
2022-12-11T12:36:07.104Z,77.91
2022-12-11T12:41:27.815Z,77.72
2022-12-11T12:46:34.216Z,78.40
2022-12-11T12:51:38.071Z,77.68
2022-12-11T12:56:43.582Z,77.35
2022-12-11T13:01:55.213Z,77.39
2022-12-11T13:06:57.512Z,77.75
2022-12-11T13:11:59.550Z,77.86
2022-12-11T13:17:26.498Z,77.38
2022-12-11T13:22:28.618Z,77.23
2022-12-11T13:27:43.635Z,77.44
2022-12-11T13:33:07.585Z,77.61
2022-12-11T13:38:21.091Z,77.29
2022-12-11T13:43:27.127Z,77.69
2022-12-11T13:48:35.098Z,77.66
2022-12-11T13:53:37.362Z,77.84
2022-12-11T13:58:40.050Z,78.10
2022-12-11T14:03:55.487Z,77.81
2022-12-11T14:09:00.578Z,77.34
2022-12-11T14:14:06.745Z,77.30
2022-12-11T14:19:09.842Z,77.50
2022-12-11T14:24:14.209Z,77.75
2022-12-11T14:29:26.531Z,77.32
2022-12-11T14:34:35.455Z,76.99
2022-12-11T14:39:47.668Z,77.70
2022-12-11T14:45:08.063Z,77.43
2022-12-11T14:50:34.627Z,76.49
2022-12-11T14:55:39.415Z,76.60
2022-12-11T15:00:41.463Z,76.48
2022-12-11T15:05:55.330Z,76.51
2022-12-11T15:11:11.219Z,76.62
2022-12-11T15:16:14.563Z,76.83
2022-12-11T15:21:17.241Z,77.27
2022-12-11T15:26:21.256Z,76.64
2022-12-11T15:31:41.419Z,77.08
2022-12-11T15:36:43.461Z,77.24
2022-12-11T15:41:45.522Z,77.01
2022-12-11T15:46:47.646Z,77.21
2022-12-11T15:51:49.682Z,77.22
2022-12-11T15:56:51.759Z,76.83
2022-12-11T16:01:53.842Z,76.55
2022-12-11T16:06:56.312Z,76.24
2022-12-11T16:11:58.329Z,76.00
2022-12-11T16:17:00.377Z,76.03
2022-12-11T16:22:02.629Z,75.94
2022-12-11T16:27:06.030Z,76.20
2022-12-11T16:32:08.697Z,75.71
2022-12-11T16:37:11.114Z,75.94
2022-12-11T16:42:13.193Z,75.66
2022-12-11T16:47:15.229Z,75.75
2022-12-11T16:52:21.999Z,75.43
2022-12-11T16:57:24.810Z,74.97
2022-12-11T17:02:26.935Z,75.27
2022-12-11T17:07:29.071Z,75.66
2022-12-11T17:12:31.125Z,75.71
2022-12-11T17:17:33.310Z,75.60
2022-12-11T17:22:35.755Z,75.26
2022-12-11T17:27:38.030Z,75.48
2022-12-11T17:32:40.142Z,75.20
2022-12-11T17:37:42.171Z,74.90
2022-12-11T17:42:44.957Z,74.71
2022-12-11T17:47:47.030Z,74.55
2022-12-11T17:52:49.072Z,74.73
2022-12-11T17:57:51.340Z,74.54
2022-12-11T18:02:53.388Z,75.18
2022-12-11T18:07:57.928Z,74.86
2022-12-11T18:13:00.992Z,74.77
2022-12-11T18:18:04.304Z,75.29
2022-12-11T18:23:06.728Z,75.38
2022-12-11T18:28:08.790Z,75.62
2022-12-11T18:33:11.096Z,75.81
2022-12-11T18:38:13.235Z,75.80
2022-12-11T18:43:15.293Z,75.90
2022-12-11T18:48:17.386Z,76.41
2022-12-11T18:53:19.847Z,76.54
2022-12-11T18:58:22.037Z,76.67
2022-12-11T19:03:24.120Z,76.98
2022-12-11T19:08:26.545Z,77.33
2022-12-11T19:13:28.675Z,77.16
2022-12-11T19:18:30.783Z,77.17
2022-12-11T19:23:32.885Z,77.17
2022-12-11T19:28:35.071Z,77.33
2022-12-11T19:33:38.187Z,77.61
2022-12-11T19:38:42.399Z,77.55
2022-12-11T19:43:45.433Z,77.86
2022-12-11T19:48:52.034Z,77.71
2022-12-11T19:53:54.567Z,77.62
2022-12-11T19:58:56.930Z,77.64
2022-12-11T20:04:01.569Z,77.96
2022-12-11T20:09:06.100Z,77.99
2022-12-11T20:14:08.970Z,78.69
2022-12-11T20:19:11.051Z,79.31
2022-12-11T20:24:13.139Z,79.19
2022-12-11T20:29:16.259Z,79.46
2022-12-11T20:34:18.955Z,79.61
2022-12-11T20:39:21.010Z,79.77
2022-12-11T20:44:23.105Z,79.47
2022-12-11T20:49:25.436Z,79.69
2022-12-11T20:54:27.593Z,79.92
2022-12-11T20:59:29.708Z,80.04
2022-12-11T21:04:32.336Z,80.35
